createdAt,value
2019-01-02T00:00:13.648Z,2.06
2019-01-02T00:02:41.122Z,2.09
2019-01-02T00:05:08.149Z,2.09
2019-01-02T00:07:35.619Z,2.11
2019-01-02T00:10:02.728Z,2.17
2019-01-02T00:12:29.762Z,2.21
2019-01-02T00:14:56.859Z,2.28
2019-01-02T00:17:23.918Z,2.33
2019-01-02T00:19:51.266Z,2.31
2019-01-02T00:22:18.310Z,2.31
2019-01-02T00:24:45.754Z,2.31
2019-01-02T00:27:12.804Z,2.37
2019-01-02T00:29:40.162Z,2.33
2019-01-02T00:32:07.194Z,2.35
2019-01-02T00:34:34.536Z,2.35
2019-01-02T00:37:01.613Z,2.34
2019-01-02T00:39:29.041Z,2.35
2019-01-02T00:41:56.094Z,2.41
2019-01-02T00:44:23.424Z,2.42
2019-01-02T00:46:50.481Z,2.44
2019-01-02T00:49:17.818Z,2.46
2019-01-02T00:51:44.874Z,2.45
2019-01-02T00:54:12.328Z,2.36
2019-01-02T00:56:39.400Z,2.20
2019-01-02T00:59:06.749Z,2.08
2019-01-02T01:01:33.791Z,1.91
2019-01-02T01:04:00.937Z,1.82
2019-01-02T01:06:27.983Z,1.53
2019-01-02T01:08:55.347Z,1.34
2019-01-02T01:11:22.387Z,1.20
2019-01-02T01:13:52.209Z,1.13
2019-01-02T01:16:19.255Z,1.08
2019-01-02T01:18:46.308Z,0.98
2019-01-02T01:21:13.355Z,0.98
2019-01-02T01:23:40.413Z,1.04
2019-01-02T01:26:07.477Z,1.01
2019-01-02T01:28:34.835Z,0.99
2019-01-02T01:31:01.874Z,0.97
2019-01-02T01:33:28.905Z,0.99
2019-01-02T01:35:55.952Z,0.99
2019-01-02T01:38:23.026Z,1.05
2019-01-02T01:40:50.380Z,1.09
2019-01-02T01:43:17.405Z,1.11
2019-01-02T01:45:44.443Z,1.14
2019-01-02T01:48:11.490Z,1.18
2019-01-02T01:50:38.555Z,1.20
2019-01-02T01:53:05.793Z,1.19
2019-01-02T01:55:32.894Z,1.20
2019-01-02T01:58:07.861Z,1.21
2019-01-02T02:00:34.936Z,1.22
2019-01-02T02:03:01.973Z,1.23
2019-01-02T02:05:29.318Z,1.24
2019-01-02T02:07:56.347Z,1.24
2019-01-02T02:10:23.370Z,1.26
2019-01-02T02:12:50.405Z,1.20
2019-01-02T02:15:17.441Z,1.14
2019-01-02T02:17:53.046Z,1.08
2019-01-02T02:20:20.112Z,1.04
2019-01-02T02:22:47.146Z,1.00
2019-01-02T02:25:35.218Z,0.98
2019-01-02T02:28:02.300Z,0.98
2019-01-02T02:30:29.337Z,0.96
2019-01-02T02:32:56.401Z,0.95
2019-01-02T02:35:23.439Z,0.93
2019-01-02T02:37:50.780Z,0.89
2019-01-02T02:40:17.840Z,0.91
2019-01-02T02:42:44.889Z,0.91
2019-01-02T02:45:12.552Z,0.91
2019-01-02T02:47:39.902Z,0.91
2019-01-02T02:50:09.752Z,0.89
2019-01-02T02:52:36.811Z,0.86
2019-01-02T02:55:04.106Z,0.87
2019-01-02T02:57:31.160Z,0.86
2019-01-02T02:59:58.217Z,0.83
2019-01-02T03:02:25.273Z,0.82
2019-01-02T03:04:52.325Z,0.85
2019-01-02T03:07:19.796Z,0.85
2019-01-02T03:09:47.145Z,0.85
2019-01-02T03:12:14.497Z,0.92
2019-01-02T03:14:41.553Z,0.91
2019-01-02T03:17:08.622Z,0.87
2019-01-02T03:19:35.986Z,0.85
2019-01-02T03:22:03.374Z,0.87
2019-01-02T03:24:30.704Z,0.86
2019-01-02T03:26:57.954Z,0.84
2019-01-02T03:29:25.003Z,0.83
2019-01-02T03:31:52.255Z,0.86
2019-01-02T03:34:19.607Z,0.86
2019-01-02T03:36:46.669Z,0.89
2019-01-02T03:39:13.729Z,0.87
2019-01-02T03:41:40.773Z,0.95
2019-01-02T03:44:07.826Z,0.96
2019-01-02T03:46:34.856Z,0.95
2019-01-02T03:49:01.922Z,0.94
2019-01-02T03:51:28.952Z,0.95
2019-01-02T03:53:55.996Z,0.94
2019-01-02T03:56:23.071Z,0.96
2019-01-02T03:58:50.105Z,0.96
2019-01-02T04:01:17.159Z,0.98
2019-01-02T04:03:44.187Z,0.94
2019-01-02T04:06:11.240Z,0.95
2019-01-02T04:08:38.270Z,0.91
2019-01-02T04:11:05.312Z,0.93
2019-01-02T04:13:32.351Z,0.93
2019-01-02T04:15:59.389Z,0.91
2019-01-02T04:18:26.442Z,0.88
2019-01-02T04:20:53.471Z,0.85
2019-01-02T04:23:20.539Z,0.85
2019-01-02T04:25:47.579Z,0.80
2019-01-02T04:28:16.158Z,0.79
2019-01-02T04:30:43.212Z,0.80
2019-01-02T04:33:10.255Z,0.79
2019-01-02T04:35:37.286Z,0.78
2019-01-02T04:38:04.367Z,0.79
2019-01-02T04:40:31.402Z,0.78
2019-01-02T04:42:58.495Z,0.79
2019-01-02T04:45:25.458Z,0.80
2019-01-02T04:47:52.510Z,0.82
2019-01-02T04:50:19.570Z,0.78
2019-01-02T04:52:46.618Z,0.75
2019-01-02T04:55:13.639Z,0.71
2019-01-02T04:57:40.696Z,0.73
2019-01-02T05:00:10.735Z,0.71
2019-01-02T05:02:37.769Z,0.71
2019-01-02T05:05:04.954Z,0.69
2019-01-02T05:07:32.115Z,0.68
2019-01-02T05:09:59.113Z,0.69
2019-01-02T05:12:26.135Z,0.69
2019-01-02T05:14:53.188Z,0.68
2019-01-02T05:17:20.221Z,0.66
2019-01-02T05:19:47.282Z,0.67
2019-01-02T05:22:14.304Z,0.66
2019-01-02T05:24:41.368Z,0.71
2019-01-02T05:27:08.396Z,0.71
2019-01-02T05:29:35.448Z,0.72
2019-01-02T05:32:02.522Z,0.73
2019-01-02T05:34:29.588Z,0.71
2019-01-02T05:36:56.613Z,0.69
2019-01-02T05:39:23.645Z,0.70
2019-01-02T05:41:50.687Z,0.68
2019-01-02T05:44:17.730Z,0.64
2019-01-02T05:46:44.761Z,0.64
2019-01-02T05:49:11.797Z,0.61
2019-01-02T05:51:38.823Z,0.66
2019-01-02T05:54:05.902Z,0.64
2019-01-02T05:56:32.921Z,0.63
2019-01-02T05:58:59.981Z,0.71
2019-01-02T06:01:27.039Z,0.67
2019-01-02T06:03:54.098Z,0.60
2019-01-02T06:06:21.129Z,0.62
2019-01-02T06:08:48.163Z,0.61
2019-01-02T06:11:15.217Z,0.57
2019-01-02T06:13:42.250Z,0.59
2019-01-02T06:16:09.283Z,0.55
2019-01-02T06:18:36.324Z,0.54
2019-01-02T06:21:03.381Z,0.52
2019-01-02T06:23:30.421Z,0.51
2019-01-02T06:25:57.489Z,0.46
2019-01-02T06:28:24.540Z,0.43
2019-01-02T06:30:51.604Z,0.38
2019-01-02T06:33:18.651Z,0.34
2019-01-02T06:35:45.670Z,0.34
2019-01-02T06:38:12.707Z,0.33
2019-01-02T06:40:39.778Z,0.33
2019-01-02T06:43:06.813Z,0.31
2019-01-02T06:45:33.838Z,0.37
2019-01-02T06:48:00.900Z,0.34
2019-01-02T06:50:27.926Z,0.33
2019-01-02T06:52:55.015Z,0.41
2019-01-02T06:55:22.054Z,0.44
2019-01-02T06:57:49.099Z,0.48
2019-01-02T07:00:27.972Z,0.54
2019-01-02T07:02:55.029Z,0.57
2019-01-02T07:05:22.103Z,0.55
2019-01-02T07:07:49.154Z,0.56
2019-01-02T07:10:16.202Z,0.55
2019-01-02T07:12:43.232Z,0.54
2019-01-02T07:15:10.326Z,0.54
2019-01-02T07:17:37.377Z,0.47
2019-01-02T07:20:05.781Z,0.43
2019-01-02T07:22:32.793Z,0.44
2019-01-02T07:24:59.850Z,0.42
2019-01-02T07:27:26.904Z,0.43
2019-01-02T07:29:53.961Z,0.44
2019-01-02T07:32:24.573Z,0.46
2019-01-02T07:35:27.536Z,0.42
2019-01-02T07:38:18.654Z,0.41
2019-01-02T07:41:35.257Z,0.41
2019-01-02T07:44:52.977Z,0.42
2019-01-02T07:48:16.653Z,0.42
2019-01-02T07:51:11.598Z,0.50
2019-01-02T07:54:17.585Z,0.49
2019-01-02T07:57:23.581Z,0.51
2019-01-02T08:00:29.577Z,0.46
2019-01-02T08:03:35.577Z,0.45
2019-01-02T08:06:41.584Z,0.43
2019-01-02T08:09:32.431Z,0.43
2019-01-02T08:12:25.280Z,0.41
2019-01-02T08:15:31.284Z,0.44
2019-01-02T08:18:26.383Z,0.45
2019-01-02T08:21:32.411Z,0.56
2019-01-02T08:24:38.479Z,0.58
2019-01-02T08:27:44.455Z,0.67
2019-01-02T08:30:50.452Z,0.69
2019-01-02T08:33:56.482Z,0.72
2019-01-02T08:36:50.851Z,0.68
2019-01-02T08:39:56.835Z,0.71
2019-01-02T08:43:02.860Z,0.83
2019-01-02T08:46:08.860Z,0.80
2019-01-02T08:49:14.854Z,0.82
2019-01-02T08:52:20.896Z,0.81
2019-01-02T08:55:19.119Z,0.85
2019-01-02T08:57:59.144Z,0.86
2019-01-02T09:01:05.158Z,0.89
2019-01-02T09:04:11.179Z,0.90
2019-01-02T09:07:18.089Z,0.83
2019-01-02T09:10:24.095Z,0.82
2019-01-02T09:13:30.100Z,0.83
2019-01-02T09:16:36.099Z,0.81
2019-01-02T09:19:42.082Z,0.84
2019-01-02T09:22:48.083Z,0.83
2019-01-02T09:25:54.163Z,0.83
2019-01-02T09:28:45.361Z,0.85
2019-01-02T09:31:51.379Z,0.89
2019-01-02T09:34:57.419Z,0.93
2019-01-02T09:38:03.384Z,0.99
2019-01-02T09:40:54.227Z,1.08
2019-01-02T09:43:53.913Z,1.11
2019-01-02T09:46:59.896Z,1.22
2019-01-02T09:50:06.005Z,1.29
2019-01-02T09:53:03.587Z,1.36
2019-01-02T09:56:09.639Z,1.41
2019-01-02T09:59:15.673Z,1.43
2019-01-02T10:01:55.962Z,1.46
2019-01-02T10:05:01.961Z,1.49
2019-01-02T10:08:07.949Z,1.53
2019-01-02T10:11:08.537Z,1.54
2019-01-02T10:14:08.127Z,1.54
2019-01-02T10:17:14.112Z,1.55
2019-01-02T10:20:20.176Z,1.59
2019-01-02T10:23:20.770Z,1.58
2019-01-02T10:26:13.089Z,1.60
2019-01-02T10:29:04.581Z,1.57
2019-01-02T10:31:55.099Z,1.62
2019-01-02T10:35:01.141Z,1.58
2019-01-02T10:37:52.501Z,1.59
2019-01-02T10:40:58.493Z,1.51
2019-01-02T10:43:50.685Z,1.50
2019-01-02T10:46:56.683Z,1.44
2019-01-02T10:49:57.433Z,1.43
2019-01-02T10:53:03.425Z,1.39
2019-01-02T10:56:05.202Z,1.38
2019-01-02T10:59:11.259Z,1.43
2019-01-02T11:02:17.256Z,1.50
2019-01-02T11:05:23.254Z,1.54
2019-01-02T11:08:29.256Z,1.59
2019-01-02T11:11:35.260Z,1.56
2019-01-02T11:14:41.264Z,1.56
2019-01-02T11:17:47.528Z,1.58
2019-01-02T11:20:53.538Z,1.56
2019-01-02T11:23:59.542Z,1.58
2019-01-02T11:27:05.524Z,1.60
2019-01-02T11:30:11.540Z,1.66
2019-01-02T11:33:17.538Z,1.70
2019-01-02T11:36:23.525Z,1.81
2019-01-02T11:39:29.527Z,1.92
2019-01-02T11:42:24.239Z,1.95
2019-01-02T11:45:11.392Z,1.94
2019-01-02T11:47:38.460Z,1.90
2019-01-02T11:50:08.264Z,1.91
2019-01-02T11:52:35.316Z,1.89
2019-01-02T11:55:02.356Z,1.90
2019-01-02T11:57:29.423Z,1.92
2019-01-02T11:59:56.488Z,1.94
2019-01-02T12:02:23.531Z,1.94
2019-01-02T12:04:50.586Z,1.94
2019-01-02T12:07:17.636Z,1.84
2019-01-02T12:09:44.715Z,1.86
2019-01-02T12:12:11.961Z,1.86
2019-01-02T12:14:39.001Z,1.80
2019-01-02T12:17:06.059Z,1.78
2019-01-02T12:19:33.101Z,1.78
2019-01-02T12:22:00.155Z,1.76
2019-01-02T12:24:27.225Z,1.77
2019-01-02T12:26:54.290Z,1.73
2019-01-02T12:29:21.331Z,1.78
2019-01-02T12:31:48.372Z,1.73
2019-01-02T12:34:15.443Z,1.68
2019-01-02T12:36:42.515Z,1.70
2019-01-02T12:39:09.575Z,1.78
2019-01-02T12:41:36.635Z,1.81
2019-01-02T12:44:03.661Z,1.86
2019-01-02T12:46:30.725Z,1.89
2019-01-02T12:48:57.929Z,1.89
2019-01-02T12:51:24.995Z,1.82
2019-01-02T12:53:52.068Z,1.81
2019-01-02T12:56:19.135Z,1.77
2019-01-02T12:58:46.237Z,1.75
2019-01-02T13:01:18.089Z,1.77
2019-01-02T13:04:25.935Z,1.77
2019-01-02T13:08:04.709Z,1.73
2019-01-02T13:11:02.785Z,1.71
2019-01-02T13:14:12.823Z,1.71
2019-01-02T13:17:05.123Z,1.68
2019-01-02T13:20:19.022Z,1.61
2019-01-02T13:23:25.560Z,1.64
2019-01-02T13:26:13.865Z,1.62
2019-01-02T13:29:27.523Z,1.58
2019-01-02T13:32:16.525Z,1.53
2019-01-02T13:35:34.376Z,1.45
2019-01-02T13:38:14.608Z,1.48
2019-01-02T13:41:23.420Z,1.56
2019-01-02T13:44:17.098Z,1.62
2019-01-02T13:47:17.495Z,1.54
2019-01-02T13:50:18.975Z,1.07
2019-01-02T13:52:46.231Z,0.63
2019-01-02T13:55:16.376Z,0.32
2019-01-02T13:57:43.418Z,0.09
2019-01-02T14:00:10.491Z,-0.02
2019-01-02T14:02:37.572Z,-0.08
2019-01-02T14:05:07.382Z,-0.11
2019-01-02T14:07:34.430Z,-0.13
2019-01-02T14:10:01.492Z,-0.16
2019-01-02T14:12:28.582Z,-0.23
2019-01-02T14:14:55.642Z,-0.26
2019-01-02T14:17:22.707Z,-0.31
2019-01-02T14:19:49.778Z,-0.29
2019-01-02T14:22:16.873Z,-0.63
2019-01-02T14:24:43.960Z,-0.84
2019-01-02T14:27:11.046Z,-1.03
2019-01-02T14:29:38.210Z,-1.07
2019-01-02T14:32:05.284Z,-0.99
2019-01-02T14:34:32.375Z,-0.99
2019-01-02T14:36:59.433Z,-0.95
2019-01-02T14:39:26.479Z,-0.89
2019-01-02T14:41:53.526Z,-0.89
2019-01-02T14:44:20.573Z,-0.80
2019-01-02T14:46:50.571Z,-0.80
2019-01-02T14:49:16.611Z,-0.75
2019-01-02T14:51:43.678Z,-0.75
2019-01-02T14:54:10.732Z,-0.72
2019-01-02T14:56:37.810Z,-0.71
2019-01-02T14:59:04.864Z,-0.70
2019-01-02T15:01:31.989Z,-0.68
2019-01-02T15:03:59.045Z,-0.67
2019-01-02T15:06:26.120Z,-0.68
2019-01-02T15:08:53.219Z,-0.68
2019-01-02T15:11:20.275Z,-0.69
2019-01-02T15:13:47.382Z,-0.66
2019-01-02T15:16:14.476Z,-0.68
2019-01-02T15:18:41.561Z,-0.70
2019-01-02T15:21:08.603Z,-0.70
2019-01-02T15:23:35.668Z,-0.64
2019-01-02T15:26:02.754Z,-0.64
2019-01-02T15:28:29.847Z,-0.33
2019-01-02T15:30:56.910Z,-0.25
2019-01-02T15:33:23.980Z,-0.16
2019-01-02T15:35:51.066Z,-0.13
2019-01-02T15:38:18.147Z,-0.14
2019-01-02T15:40:45.241Z,-0.20
2019-01-02T15:43:12.330Z,-0.29
2019-01-02T15:45:39.390Z,-0.35
2019-01-02T15:48:06.470Z,-0.35
2019-01-02T15:50:33.553Z,-0.38
2019-01-02T15:53:00.676Z,-0.41
2019-01-02T15:55:27.742Z,-0.42
2019-01-02T15:57:54.810Z,-0.45
2019-01-02T16:00:21.901Z,-0.52
2019-01-02T16:02:48.991Z,-0.52
2019-01-02T16:05:16.087Z,-0.56
2019-01-02T16:07:44.236Z,-0.63
2019-01-02T16:10:11.088Z,-0.63
2019-01-02T16:12:38.163Z,-0.70
2019-01-02T16:15:05.888Z,-0.73
2019-01-02T16:17:32.964Z,-0.80
2019-01-02T16:20:00.374Z,-0.93
2019-01-02T16:22:27.634Z,-0.93
2019-01-02T16:24:56.361Z,-1.00
2019-01-02T16:27:23.780Z,-1.09
2019-01-02T16:29:53.107Z,-1.13
2019-01-02T16:32:20.228Z,-1.16
2019-01-02T16:34:47.315Z,-1.22
2019-01-02T16:37:14.417Z,-1.22
2019-01-02T16:39:43.029Z,-1.25
2019-01-02T16:42:10.130Z,-1.25
2019-01-02T16:44:37.216Z,-1.28
2019-01-02T16:47:04.314Z,-1.27
2019-01-02T16:49:31.418Z,-1.26
2019-01-02T16:51:58.521Z,-1.30
2019-01-02T16:54:25.615Z,-1.30
2019-01-02T16:56:52.709Z,-1.29
2019-01-02T16:59:19.796Z,-1.31
2019-01-02T17:01:46.966Z,-1.27
2019-01-02T17:04:14.025Z,-1.32
2019-01-02T17:06:41.127Z,-1.35
2019-01-02T17:09:08.563Z,-1.42
2019-01-02T17:11:35.937Z,-1.46
2019-01-02T17:14:03.030Z,-1.49
2019-01-02T17:16:30.137Z,-1.48
2019-01-02T17:18:57.229Z,-1.48
2019-01-02T17:21:24.516Z,-1.48
2019-01-02T17:23:51.599Z,-1.49
2019-01-02T17:26:19.012Z,-1.55
2019-01-02T17:28:46.448Z,-1.60
2019-01-02T17:31:13.557Z,-1.61
2019-01-02T17:33:40.687Z,-1.62
2019-01-02T17:36:07.793Z,-1.62
2019-01-02T17:38:34.936Z,-1.63
2019-01-02T17:41:02.085Z,-1.66
2019-01-02T17:43:29.423Z,-1.68
2019-01-02T17:45:56.546Z,-1.67
2019-01-02T17:48:24.316Z,-1.67
2019-01-02T17:50:51.534Z,-1.67
2019-01-02T17:56:27.063Z,-1.70
2019-01-02T17:58:54.181Z,-1.72
2019-01-02T18:01:21.396Z,-1.73
2019-01-02T18:03:48.509Z,-1.75
2019-01-02T18:06:15.650Z,-1.73
2019-01-02T18:08:42.742Z,-1.73
2019-01-02T18:11:10.447Z,-1.77
2019-01-02T18:13:37.576Z,-1.77
2019-01-02T18:16:04.685Z,-1.75
2019-01-02T18:18:32.123Z,-1.74
2019-01-02T18:20:59.305Z,-1.75
2019-01-02T18:23:28.511Z,-1.76
2019-01-02T18:25:55.651Z,-1.74
2019-01-02T18:28:22.819Z,-1.71
2019-01-02T18:30:49.977Z,-1.68
2019-01-02T18:33:17.093Z,-1.63
2019-01-02T18:35:44.268Z,-1.61
2019-01-02T18:38:12.488Z,-1.59
2019-01-02T18:40:39.668Z,-1.59
2019-01-02T18:43:06.878Z,-1.56
2019-01-02T18:45:34.347Z,-1.56
2019-01-02T18:48:01.907Z,-1.55
2019-01-02T18:50:29.236Z,-1.57
2019-01-02T18:52:56.595Z,-1.56
2019-01-02T18:55:23.861Z,-1.59
2019-01-02T18:57:51.204Z,-1.63
2019-01-02T19:00:18.460Z,-1.61
2019-01-02T19:02:52.988Z,-1.53
2019-01-02T19:05:20.826Z,-1.48
2019-01-02T19:07:48.083Z,-1.53
2019-01-02T19:10:15.363Z,-1.55
2019-01-02T19:12:42.726Z,-1.61
2019-01-02T19:15:10.010Z,-1.70
2019-01-02T19:17:37.183Z,-1.80
2019-01-02T19:20:04.869Z,-1.86
2019-01-02T19:22:32.105Z,-1.93
2019-01-02T19:24:59.275Z,-1.97
2019-01-02T19:27:27.570Z,-1.99
2019-01-02T19:29:54.787Z,-2.03
2019-01-02T19:32:22.075Z,-2.04
2019-01-02T19:34:49.516Z,-2.07
2019-01-02T19:37:17.165Z,-2.10
2019-01-02T19:39:44.619Z,-2.11
2019-01-02T19:42:12.016Z,-2.14
2019-01-02T19:44:39.456Z,-2.17
2019-01-02T19:47:06.706Z,-2.23
2019-01-02T19:49:34.075Z,-2.27
2019-01-02T19:52:02.044Z,-2.28
2019-01-02T19:54:29.736Z,-2.30
2019-01-02T19:56:57.416Z,-2.31
2019-01-02T19:59:24.826Z,-2.32
2019-01-02T20:01:52.122Z,-2.33
2019-01-02T20:04:19.522Z,-2.35
2019-01-02T20:06:47.223Z,-2.37
2019-01-02T20:09:14.632Z,-2.35
2019-01-02T20:11:42.446Z,-2.37
2019-01-02T20:14:11.060Z,-2.36
2019-01-02T20:16:39.414Z,-2.35
2019-01-02T20:19:09.889Z,-2.32
2019-01-02T20:21:38.206Z,-2.30
2019-01-02T20:24:10.778Z,-2.27
2019-01-02T20:26:40.878Z,-2.25
2019-01-02T20:29:09.364Z,-2.23
2019-01-02T20:31:36.997Z,-2.20
2019-01-02T20:34:04.756Z,-2.17
2019-01-02T20:36:32.546Z,-2.15
2019-01-02T20:39:00.861Z,-2.12
2019-01-02T20:41:29.148Z,-2.12
2019-01-02T20:43:59.414Z,-2.08
2019-01-02T20:46:28.550Z,-2.06
2019-01-02T20:49:04.629Z,-2.05
2019-01-02T20:51:32.994Z,-2.01
2019-01-02T20:54:00.535Z,-2.00
2019-01-02T20:56:28.561Z,-1.97
2019-01-02T20:58:56.211Z,-1.96
2019-01-02T21:01:23.959Z,-1.91
2019-01-02T21:03:52.058Z,-1.90
2019-01-02T21:06:31.746Z,-1.89
2019-01-02T21:08:59.474Z,-1.88
2019-01-02T21:11:27.369Z,-1.88
2019-01-02T21:13:56.264Z,-1.87
2019-01-02T21:16:23.848Z,-1.86
2019-01-02T21:18:52.065Z,-1.85
2019-01-02T21:21:20.314Z,-1.81
2019-01-02T21:23:47.748Z,-1.80
2019-01-02T21:26:15.535Z,-1.78
2019-01-02T21:28:42.903Z,-1.74
2019-01-02T21:31:10.250Z,-1.71
2019-01-02T21:33:38.807Z,-1.69
2019-01-02T21:36:06.241Z,-1.68
2019-01-02T21:38:33.409Z,-1.68
2019-01-02T21:41:00.598Z,-1.67
2019-01-02T21:43:29.634Z,-1.67
2019-01-02T21:45:56.784Z,-1.67
2019-01-02T21:48:24.082Z,-1.68
2019-01-02T21:50:54.391Z,-1.70
2019-01-02T21:53:21.585Z,-1.70
2019-01-02T21:55:48.790Z,-1.67
2019-01-02T21:58:16.014Z,-1.67
2019-01-02T22:00:43.232Z,-1.66
2019-01-02T22:03:11.501Z,-1.68
2019-01-02T22:05:38.695Z,-1.72
2019-01-02T22:08:07.029Z,-1.72
2019-01-02T22:10:35.477Z,-1.74
2019-01-02T22:13:05.227Z,-1.74
2019-01-02T22:15:32.726Z,-1.76
2019-01-02T22:17:59.889Z,-1.75
2019-01-02T22:20:27.275Z,-1.76
2019-01-02T22:22:54.813Z,-1.74
2019-01-02T22:25:21.964Z,-1.75
2019-01-02T22:27:49.135Z,-1.74
2019-01-02T22:30:16.243Z,-1.73
2019-01-02T22:32:43.366Z,-1.73
2019-01-02T22:35:10.511Z,-1.75
2019-01-02T22:37:37.912Z,-1.75
2019-01-02T22:40:05.970Z,-1.77
2019-01-02T22:42:33.057Z,-1.77
2019-01-02T22:45:00.162Z,-1.78
2019-01-02T22:47:27.546Z,-1.76
2019-01-02T22:49:54.635Z,-1.76
2019-01-02T22:52:21.752Z,-1.77
2019-01-02T22:54:49.135Z,-1.75
2019-01-02T22:57:16.260Z,-1.72
2019-01-02T22:59:43.720Z,-1.71
2019-01-02T23:02:22.253Z,-1.67
2019-01-02T23:05:03.292Z,-1.66
2019-01-02T23:08:01.306Z,-1.65
2019-01-02T23:10:46.538Z,-1.66
2019-01-02T23:13:36.879Z,-1.65
2019-01-02T23:16:20.483Z,-1.64
2019-01-02T23:19:05.504Z,-1.64
2019-01-02T23:21:54.109Z,-1.65
2019-01-02T23:24:40.812Z,-1.63
2019-01-02T23:27:26.234Z,-1.59
2019-01-02T23:30:25.118Z,-1.54
2019-01-02T23:33:14.730Z,-1.64
2019-01-02T23:36:07.298Z,-1.77
2019-01-02T23:38:55.141Z,-1.88
2019-01-02T23:41:40.447Z,-1.95
2019-01-02T23:44:25.808Z,-2.04
2019-01-02T23:47:30.694Z,-1.99
2019-01-02T23:50:17.294Z,-1.99
2019-01-02T23:53:03.966Z,-1.98
2019-01-02T23:55:50.678Z,-2.00
2019-01-02T23:58:37.378Z,-2.06
